Julian, CA

3:04 PM PDT on August 21, 2014 (GMT -0700)
Pinezanita RV Park & Campgrounds | Change Station
CLOSE
Current Station
Personal Weather Station
Location: Julian, CA
Elevation: 4698 ft
Nearby Weather Stations
Active Advisory: Flash Flood Warning, Areal Flood Advisory Active Notice: Record Report

Elev 4698 ft 33.04 °N, 116.56 °W | Updated 3 seconds ago

Thunderstorm
Thunderstorm
71.1 °F
Feels Like 77 °F
N
12.1
Wind Variable Wind from SW
Gusts 17.0 mph

Today
High -- | Low -- °F
--% Chance of Precip.
Yesterday
High -- | Low -- °F
Precip. -- in
6:13 AM 7:24 PM
Waning Crescent, 12% visible
Pressure 29.87 in
Visibility -9999.0 miles
Clouds
Heat Index 77 °F
Dew Point 50 °F
Humidity 48%
Rainfall 0.07 in
Snow Depth Not available.
UV Not available.
Pollen 4.80 out of 12
Air Quality Not available.
Flu Activity Not available.
METAR KCZZ 212152Z AUTO 35004KT 23/15 A2995 RMK AO1 WSHFT 2043 SLP114 P0003 T02280150

More Conditions Fewer Conditions

Pressure 29.87 in
Visibility -9999.0 miles
Clouds
Heat Index 77 °F
Dew Point 50 °F
Humidity 48%
Rainfall 0.07 in
Snow Depth Not available.
UV Not available.
Pollen 4.80 out of 12
Air Quality Not available.
Flu Activity Not available.
METAR KCZZ 212152Z AUTO 35004KT 23/15 A2995 RMK AO1 WSHFT 2043 SLP114 P0003 T02280150

More Conditions Fewer Conditions

10-Day Weather Forecast

Almanac

Astronomy

Aug. 21, 2014 Rise Set
Actual Time 6:13 AM PDT 7:24 PM PDT
Civil Twilight 5:47 AM PDT 7:50 PM PDT
Nautical Twilight 5:16 AM PDT 8:20 PM PDT
Astronomical Twilight 4:45 AM PDT 8:52 PM PDT
Moon 2:52 AM PDT 4:52 PM PDT
Length of Visible Light 14h 02m
Length of Day
13h 11m
Tomorrow will be 1m 51s shorter.
Waning Crescent, 12% of the Moon is Illuminated
Today
Waning Crescent
Aug 25
New
Sep 2
First Quarter
Sep 8
Full
Sep 15
Last Quarter

Today's Extremes

State Highs State Lows

Community

WunderPhotos

Upload Photos

1,746,033 photos uploaded!

WunderBlogs® & News

Nearby

Snow Depth

Station Depth Elevation
Leavitt Meadows 1 in 7200 ft
CSS Lab 1 in 6900 ft
Adin Mountain 0 in 6200 ft
Cedar Pass 1 in 7100 ft

Earthquake Activity

City Distance Mag. Time & Date
Yucca Valley, California 87 miles 3.8 8:57 PM PDT
2014-08-14
Alberto Oviedo Mota, Mexico 102 miles 2.8 3:03 PM PDT
2014-08-14
Minimum magnitude displayed is 2.5.

Coastal Water Temperatures

Place Temperature
No Stations Reporting

Nearby Weather Stations